createdAt,value
2019-03-09T00:01:48.645Z,98723.78
2019-03-09T00:04:18.970Z,98725.34
2019-03-09T00:06:49.269Z,98732.20
2019-03-09T00:09:19.505Z,98728.23
2019-03-09T00:11:50.221Z,98726.67
2019-03-09T00:14:20.784Z,98723.75
2019-03-09T00:16:51.209Z,98716.07
2019-03-09T00:19:21.521Z,98719.52
2019-03-09T00:21:52.083Z,98712.89
2019-03-09T00:24:44.081Z,98716.03
2019-03-09T00:27:36.292Z,98714.72
2019-03-09T00:30:19.902Z,98710.17
2019-03-09T00:32:50.332Z,98694.69
2019-03-09T00:35:20.586Z,98690.95
2019-03-09T00:37:50.939Z,98690.96
2019-03-09T00:40:21.338Z,98691.50
2019-03-09T00:42:51.570Z,98689.37
2019-03-09T00:45:21.864Z,98688.10
2019-03-09T00:47:52.195Z,98688.38
2019-03-09T00:50:22.469Z,98693.34
2019-03-09T00:52:52.792Z,98689.66
2019-03-09T00:55:22.992Z,98688.04
2019-03-09T00:57:53.298Z,98682.55
2019-03-09T01:00:23.553Z,98675.63
2019-03-09T01:02:54.140Z,98680.38
2019-03-09T01:05:24.404Z,98674.84
2019-03-09T01:07:54.684Z,98668.02
2019-03-09T01:10:25.051Z,98667.48
2019-03-09T01:12:55.379Z,98661.13
2019-03-09T01:15:27.007Z,98657.68
2019-03-09T01:17:57.247Z,98647.33
2019-03-09T01:20:27.526Z,98642.11
2019-03-09T01:22:57.781Z,98646.55
2019-03-09T01:25:28.443Z,98646.78
2019-03-09T01:27:58.682Z,98635.66
2019-03-09T01:30:28.920Z,98638.53
2019-03-09T01:32:59.166Z,98634.55
2019-03-09T01:35:29.823Z,98626.10
2019-03-09T01:38:00.147Z,98624.53
2019-03-09T01:40:30.407Z,98616.63
2019-03-09T01:43:00.773Z,98616.41
2019-03-09T01:45:31.038Z,98617.76
2019-03-09T01:48:01.403Z,98614.03
2019-03-09T01:50:31.693Z,98613.77
2019-03-09T01:53:01.935Z,98605.80
2019-03-09T01:55:32.137Z,98607.38
2019-03-09T01:58:02.448Z,98608.98
2019-03-09T02:00:33.002Z,98610.08
2019-03-09T02:03:03.556Z,98608.69
2019-03-09T02:05:35.015Z,98604.17
2019-03-09T02:08:05.259Z,98611.52
2019-03-09T02:10:35.566Z,98608.11
2019-03-09T02:13:05.843Z,98600.95
2019-03-09T02:15:36.185Z,98599.08
2019-03-09T02:18:06.478Z,98595.63
2019-03-09T02:20:37.156Z,98592.39
2019-03-09T02:23:08.693Z,98592.43
2019-03-09T02:25:39.018Z,98588.91
2019-03-09T02:28:10.462Z,98589.20
2019-03-09T02:30:40.702Z,98584.94
2019-03-09T02:33:11.115Z,98590.73
2019-03-09T02:35:41.598Z,98571.17
2019-03-09T02:38:23.292Z,98562.44
2019-03-09T02:40:53.675Z,98550.73
2019-03-09T02:43:24.041Z,98540.65
2019-03-09T02:45:54.370Z,98532.72
2019-03-09T02:48:24.659Z,98528.27
2019-03-09T02:50:58.050Z,98527.44
2019-03-09T02:53:28.572Z,98526.41
2019-03-09T02:55:59.035Z,98524.30
2019-03-09T02:58:29.249Z,98523.03
2019-03-09T03:01:18.508Z,98521.94
2019-03-09T03:03:56.227Z,98519.58
2019-03-09T03:06:26.616Z,98521.94
2019-03-09T03:08:56.889Z,98509.02
2019-03-09T03:11:27.237Z,98508.98
2019-03-09T03:13:57.538Z,98501.09
2019-03-09T03:16:27.930Z,98504.48
2019-03-09T03:18:58.302Z,98499.77
2019-03-09T03:21:30.213Z,98486.05
2019-03-09T03:24:00.507Z,98483.39
2019-03-09T03:26:30.995Z,98481.31
2019-03-09T03:29:01.330Z,98480.21
2019-03-09T03:31:31.574Z,98474.16
2019-03-09T03:34:01.983Z,98471.25
2019-03-09T03:36:32.719Z,98464.64
2019-03-09T03:39:03.397Z,98462.86
2019-03-09T03:41:33.812Z,98456.47
2019-03-09T03:44:04.259Z,98453.83
2019-03-09T03:46:34.595Z,98457.55
2019-03-09T03:49:04.910Z,98458.89
2019-03-09T03:51:35.170Z,98450.27
2019-03-09T03:54:05.500Z,98443.39
2019-03-09T03:56:35.942Z,98436.74
2019-03-09T03:59:06.264Z,98431.92
2019-03-09T04:01:36.569Z,98420.87
2019-03-09T04:04:07.017Z,98417.70
2019-03-09T04:06:37.702Z,98415.03
2019-03-09T04:09:08.473Z,98405.17
2019-03-09T04:11:39.201Z,98404.14
2019-03-09T04:14:09.579Z,98399.39
2019-03-09T04:16:39.790Z,98405.70
2019-03-09T04:19:10.243Z,98400.97
2019-03-09T04:21:40.589Z,98390.11
2019-03-09T04:24:10.863Z,98387.76
2019-03-09T04:26:41.121Z,98384.34
2019-03-09T04:29:11.389Z,98378.24
2019-03-09T04:31:41.808Z,98368.73
2019-03-09T04:34:12.035Z,98365.00
2019-03-09T04:36:42.435Z,98355.75
2019-03-09T04:39:12.730Z,98352.48
2019-03-09T04:41:43.004Z,98353.67
2019-03-09T04:44:14.344Z,98343.91
2019-03-09T04:46:44.599Z,98345.58
2019-03-09T04:49:15.026Z,98335.88
2019-03-09T04:51:45.340Z,98333.56
2019-03-09T04:54:15.679Z,98335.70
2019-03-09T04:56:45.965Z,98328.59
2019-03-09T04:59:17.988Z,98321.19
2019-03-09T05:01:48.231Z,98310.63
2019-03-09T05:04:50.494Z,98304.48
2019-03-09T05:07:26.888Z,98301.66
2019-03-09T05:10:04.622Z,98298.80
2019-03-09T05:12:34.862Z,98290.28
2019-03-09T05:15:06.492Z,98292.53
2019-03-09T05:17:36.794Z,98293.19
2019-03-09T05:20:07.348Z,98284.67
2019-03-09T05:22:38.613Z,98268.45
2019-03-09T05:25:08.998Z,98267.30
2019-03-09T05:27:39.389Z,98256.47
2019-03-09T05:30:12.027Z,98255.32
2019-03-09T05:32:42.669Z,98243.66
2019-03-09T05:35:12.880Z,98244.06
2019-03-09T05:37:43.551Z,98230.52
2019-03-09T05:40:13.880Z,98229.95
2019-03-09T05:42:44.199Z,98224.96
2019-03-09T05:45:14.527Z,98233.13
2019-03-09T05:47:44.814Z,98225.06
2019-03-09T05:50:15.145Z,98232.00
2019-03-09T05:52:46.530Z,98225.92
2019-03-09T05:55:18.608Z,98217.02
2019-03-09T05:57:48.895Z,98215.17
2019-03-09T06:00:19.291Z,98207.43
2019-03-09T06:02:49.869Z,98195.61
2019-03-09T06:05:37.566Z,98180.23
2019-03-09T06:08:08.730Z,98186.84
2019-03-09T06:10:39.148Z,98180.98
2019-03-09T06:13:09.512Z,98184.69
2019-03-09T06:15:39.794Z,98185.14
2019-03-09T06:18:10.452Z,98169.83
2019-03-09T06:20:40.815Z,98175.02
2019-03-09T06:23:11.308Z,98182.27
2019-03-09T06:25:41.835Z,98162.06
2019-03-09T06:28:12.104Z,98155.72
2019-03-09T06:30:42.475Z,98172.98
2019-03-09T06:33:29.715Z,98143.63
2019-03-09T06:36:23.845Z,98153.97
2019-03-09T06:39:07.499Z,98151.52
2019-03-09T06:42:20.335Z,98158.02
2019-03-09T06:44:50.927Z,98149.28
2019-03-09T06:47:21.167Z,98159.48
2019-03-09T06:49:51.430Z,98155.31
2019-03-09T06:52:21.712Z,98152.25
2019-03-09T06:54:52.008Z,98147.30
2019-03-09T06:57:22.324Z,98160.07
2019-03-09T06:59:52.694Z,98146.50
2019-03-09T07:02:24.967Z,98143.14
2019-03-09T07:04:55.246Z,98146.84
2019-03-09T07:07:25.710Z,98136.34
2019-03-09T07:09:56.151Z,98152.09
2019-03-09T07:12:26.433Z,98145.95
2019-03-09T07:15:28.958Z,98136.50
2019-03-09T07:18:19.818Z,98140.53
2019-03-09T07:20:50.100Z,98144.62
2019-03-09T07:23:20.503Z,98145.52
2019-03-09T07:25:50.945Z,98150.04
2019-03-09T07:28:21.241Z,98141.98
2019-03-09T07:30:51.556Z,98154.50
2019-03-09T07:33:21.865Z,98144.02
2019-03-09T07:35:52.121Z,98138.58
2019-03-09T07:38:24.434Z,98146.67
2019-03-09T07:40:54.831Z,98155.23
2019-03-09T07:43:25.096Z,98153.22
2019-03-09T07:45:56.470Z,98152.84
2019-03-09T07:48:27.814Z,98150.89
2019-03-09T07:50:58.060Z,98142.73
2019-03-09T07:53:28.342Z,98156.67
2019-03-09T07:55:59.085Z,98146.38
2019-03-09T07:58:29.383Z,98147.23
2019-03-09T08:00:59.632Z,98143.41
2019-03-09T08:03:30.121Z,98147.37
2019-03-09T08:06:00.689Z,98142.97
2019-03-09T08:08:31.235Z,98140.03
2019-03-09T08:11:01.725Z,98127.75
2019-03-09T08:13:32.030Z,98129.01
2019-03-09T08:16:02.293Z,98137.59
2019-03-09T08:18:33.494Z,98135.25
2019-03-09T08:21:03.809Z,98140.36
2019-03-09T08:23:34.124Z,98143.88
2019-03-09T08:26:04.517Z,98129.84
2019-03-09T08:28:34.900Z,98106.86
2019-03-09T08:31:05.161Z,98125.63
2019-03-09T08:33:38.761Z,98122.59
2019-03-09T08:36:09.053Z,98127.71
2019-03-09T08:38:39.293Z,98136.67
2019-03-09T08:41:09.778Z,98116.08
2019-03-09T08:43:40.982Z,98109.64
2019-03-09T08:46:11.236Z,98105.79
2019-03-09T08:48:41.507Z,98111.66
2019-03-09T08:51:11.966Z,98122.94
2019-03-09T08:53:42.268Z,98093.40
2019-03-09T08:56:12.509Z,98116.72
2019-03-09T08:58:42.817Z,98101.89
2019-03-09T09:01:13.122Z,98118.17
2019-03-09T09:03:43.442Z,98124.62
2019-03-09T09:06:13.687Z,98127.51
2019-03-09T09:08:44.200Z,98122.16
2019-03-09T09:11:14.483Z,98126.45
2019-03-09T09:13:44.841Z,98113.56
2019-03-09T09:16:15.334Z,98114.94
2019-03-09T09:18:45.677Z,98116.80
2019-03-09T09:21:15.919Z,98142.30
2019-03-09T09:23:46.229Z,98129.78
2019-03-09T09:26:16.456Z,98156.52
2019-03-09T09:28:46.803Z,98132.05
2019-03-09T09:31:17.042Z,98110.83
2019-03-09T09:33:47.347Z,98141.75
2019-03-09T09:36:17.554Z,98131.77
2019-03-09T09:38:47.880Z,98136.47
2019-03-09T09:41:18.267Z,98136.53
2019-03-09T09:43:48.626Z,98136.17
2019-03-09T09:46:18.873Z,98148.32
2019-03-09T09:48:50.656Z,98148.23
2019-03-09T09:51:21.074Z,98150.91
2019-03-09T09:53:51.400Z,98146.91
2019-03-09T09:56:21.783Z,98127.81
2019-03-09T09:58:52.129Z,98156.36
2019-03-09T10:01:22.297Z,98157.59
2019-03-09T10:03:52.522Z,98171.05
2019-03-09T10:06:23.223Z,98166.06
2019-03-09T10:08:53.620Z,98175.38
2019-03-09T10:11:24.777Z,98175.89
2019-03-09T10:13:54.977Z,98166.92
2019-03-09T10:16:25.365Z,98149.53
2019-03-09T10:18:55.646Z,98167.41
2019-03-09T10:21:25.928Z,98159.30
2019-03-09T10:23:57.082Z,98171.95
2019-03-09T10:26:27.589Z,98171.06
2019-03-09T10:28:57.841Z,98179.17
2019-03-09T10:31:29.030Z,98173.52
2019-03-09T10:33:59.348Z,98177.31
2019-03-09T10:36:29.824Z,98156.05
2019-03-09T10:39:01.691Z,98184.20
2019-03-09T10:41:33.647Z,98177.70
2019-03-09T10:44:04.026Z,98181.16
2019-03-09T10:46:34.630Z,98187.70
2019-03-09T10:49:04.948Z,98181.52
2019-03-09T10:51:35.309Z,98176.05
2019-03-09T10:54:05.678Z,98172.60
2019-03-09T10:56:35.993Z,98174.19
2019-03-09T10:59:06.323Z,98163.56
2019-03-09T11:01:36.657Z,98170.75
2019-03-09T11:04:07.024Z,98181.86
2019-03-09T11:06:37.359Z,98198.22
2019-03-09T11:09:07.945Z,98197.50
2019-03-09T11:11:38.391Z,98184.58
2019-03-09T11:14:08.691Z,98174.27
2019-03-09T11:16:38.948Z,98177.16
2019-03-09T11:19:09.286Z,98178.24
2019-03-09T11:21:39.601Z,98178.48
2019-03-09T11:24:09.943Z,98175.75
2019-03-09T11:26:40.393Z,98174.41
2019-03-09T11:29:10.594Z,98182.41
2019-03-09T11:31:40.813Z,98175.43
2019-03-09T11:34:11.156Z,98182.73
2019-03-09T11:36:41.367Z,98172.86
2019-03-09T11:39:11.620Z,98164.63
2019-03-09T11:41:41.922Z,98170.50
2019-03-09T11:44:12.250Z,98173.86
2019-03-09T11:46:42.490Z,98160.75
2019-03-09T11:49:12.781Z,98159.58
2019-03-09T11:51:43.092Z,98158.81
2019-03-09T11:54:13.389Z,98153.06
2019-03-09T11:56:43.663Z,98157.00
2019-03-09T11:59:14.053Z,98149.15
2019-03-09T12:01:44.399Z,98146.63
2019-03-09T12:04:14.600Z,98149.91
2019-03-09T12:06:44.984Z,98147.03
2019-03-09T12:09:15.651Z,98153.39
2019-03-09T12:11:59.052Z,98147.46
2019-03-09T12:14:29.347Z,98143.80
2019-03-09T12:16:59.692Z,98160.16
2019-03-09T12:19:30.130Z,98153.24
2019-03-09T12:22:00.431Z,98152.62
2019-03-09T12:24:31.994Z,98148.09
2019-03-09T12:27:02.202Z,98143.30
2019-03-09T12:29:33.102Z,98156.65
2019-03-09T12:32:03.351Z,98140.08
2019-03-09T12:34:33.568Z,98152.22
2019-03-09T12:37:06.302Z,98143.45
2019-03-09T12:39:36.490Z,98130.62
2019-03-09T12:42:06.918Z,98134.17
2019-03-09T12:44:37.164Z,98133.48
2019-03-09T12:47:07.396Z,98132.14
2019-03-09T12:49:37.627Z,98134.11
2019-03-09T12:52:07.956Z,98153.55
2019-03-09T12:54:38.476Z,98144.30
2019-03-09T12:57:09.741Z,98136.56
2019-03-09T12:59:41.140Z,98164.77
2019-03-09T13:02:13.694Z,98163.56
2019-03-09T13:04:44.241Z,98162.23
2019-03-09T13:07:14.445Z,98170.47
2019-03-09T13:09:45.228Z,98164.63
2019-03-09T13:12:15.827Z,98163.11
2019-03-09T13:14:46.141Z,98151.77
2019-03-09T13:17:20.608Z,98161.66
2019-03-09T13:19:50.831Z,98139.06
2019-03-09T13:22:21.158Z,98158.16
2019-03-09T13:24:52.541Z,98143.97
2019-03-09T13:27:22.945Z,98138.53
2019-03-09T13:29:53.295Z,98133.63
2019-03-09T13:32:23.617Z,98132.92
2019-03-09T13:34:53.890Z,98127.94
2019-03-09T13:37:24.183Z,98112.00
2019-03-09T13:39:54.486Z,98115.05
2019-03-09T13:42:25.018Z,98110.02
2019-03-09T13:44:56.764Z,98110.74
2019-03-09T13:47:27.041Z,98111.69
2019-03-09T13:49:57.338Z,98104.84
2019-03-09T13:52:28.045Z,98094.31
2019-03-09T13:54:58.416Z,98102.08
2019-03-09T13:57:28.665Z,98095.90
2019-03-09T13:59:59.332Z,98091.17
2019-03-09T14:02:29.559Z,98077.83
2019-03-09T14:04:59.926Z,98048.16
2019-03-09T14:07:30.184Z,98047.50
2019-03-09T14:10:00.500Z,98039.50
2019-03-09T14:12:31.028Z,98036.20
2019-03-09T14:15:02.101Z,98044.77
2019-03-09T14:17:32.531Z,98032.82
2019-03-09T14:20:02.999Z,98026.09
2019-03-09T14:22:33.307Z,98011.10
2019-03-09T14:25:03.598Z,98012.25
2019-03-09T14:27:34.989Z,98005.39
2019-03-09T14:30:06.207Z,98003.53
2019-03-09T14:32:36.438Z,98102.71
2019-03-09T14:35:07.396Z,98069.61
2019-03-09T14:37:37.790Z,98063.30
2019-03-09T14:40:09.176Z,98065.67
2019-03-09T14:42:39.524Z,98061.45
2019-03-09T14:45:13.281Z,98069.92
2019-03-09T14:47:43.615Z,98064.92
2019-03-09T14:50:14.935Z,98052.70
2019-03-09T14:52:46.422Z,98060.91
2019-03-09T14:55:16.645Z,98051.15
2019-03-09T14:57:46.962Z,98044.32
2019-03-09T15:00:19.158Z,98034.59
2019-03-09T15:02:49.333Z,98039.28
2019-03-09T15:05:19.849Z,98016.48
2019-03-09T15:07:50.428Z,98020.80
2019-03-09T15:10:20.743Z,98037.08
2019-03-09T15:12:51.202Z,98027.42
2019-03-09T15:15:21.545Z,98026.71
2019-03-09T15:17:51.747Z,98011.24
2019-03-09T15:20:22.043Z,98007.02
2019-03-09T15:22:52.321Z,97993.98
2019-03-09T15:25:22.608Z,97993.70
2019-03-09T15:27:52.853Z,97987.60
2019-03-09T15:30:23.283Z,97982.65
2019-03-09T15:32:53.577Z,97987.99
2019-03-09T15:35:23.866Z,97986.73
2019-03-09T15:37:54.152Z,97980.39
2019-03-09T15:40:27.001Z,97980.25
2019-03-09T15:42:57.184Z,97959.25
2019-03-09T15:45:38.091Z,97968.55
2019-03-09T15:48:08.395Z,97963.70
2019-03-09T15:50:38.700Z,97958.64
2019-03-09T15:53:16.429Z,97950.89
2019-03-09T15:55:48.263Z,97958.38
2019-03-09T15:58:18.630Z,97951.83
2019-03-09T16:00:48.941Z,97947.38
2019-03-09T16:03:19.563Z,97931.42
2019-03-09T16:05:49.790Z,97927.50
2019-03-09T16:08:20.228Z,97915.80
2019-03-09T16:10:50.680Z,97912.56
2019-03-09T16:13:21.011Z,97895.80
2019-03-09T16:15:51.647Z,97885.78
2019-03-09T16:18:21.915Z,97872.98
2019-03-09T16:20:52.129Z,97860.53
2019-03-09T16:23:22.716Z,97856.38
2019-03-09T16:25:53.135Z,97843.58
2019-03-09T16:28:23.326Z,97839.59
2019-03-09T16:30:53.561Z,97829.67
2019-03-09T16:33:23.905Z,97827.92
2019-03-09T16:35:54.208Z,97822.19
2019-03-09T16:38:24.516Z,97817.13
2019-03-09T16:40:55.016Z,97820.73
2019-03-09T16:43:25.287Z,97815.80
2019-03-09T16:45:56.001Z,97814.34
2019-03-09T16:48:26.250Z,97836.77
2019-03-09T16:50:56.504Z,97835.61
2019-03-09T16:53:26.742Z,97833.61
2019-03-09T16:55:57.201Z,97823.09
2019-03-09T16:58:27.583Z,97832.92
2019-03-09T17:00:57.952Z,97829.56
2019-03-09T17:03:28.230Z,97827.29
2019-03-09T17:05:58.457Z,97809.19
2019-03-09T17:08:28.774Z,97812.55
2019-03-09T17:10:59.343Z,97796.34
2019-03-09T17:13:29.898Z,97790.67
2019-03-09T17:16:01.330Z,97773.66
2019-03-09T17:18:36.148Z,97775.44
2019-03-09T17:21:06.533Z,97775.85
2019-03-09T17:23:40.926Z,97770.67
2019-03-09T17:26:11.122Z,97772.46
2019-03-09T17:28:41.323Z,97759.18
2019-03-09T17:31:11.658Z,97757.55
2019-03-09T17:33:42.013Z,97750.42
2019-03-09T17:36:12.265Z,97744.66
2019-03-09T17:38:42.568Z,97735.61
2019-03-09T17:41:12.884Z,97745.77
2019-03-09T17:43:43.137Z,97752.24
2019-03-09T17:46:14.647Z,97754.90
2019-03-09T17:48:44.921Z,97751.59
2019-03-09T17:51:15.361Z,97732.20
2019-03-09T17:53:45.864Z,97717.80
2019-03-09T17:56:16.099Z,97716.76
2019-03-09T17:58:50.177Z,97690.95
2019-03-09T18:01:38.162Z,97679.57
2019-03-09T18:04:08.771Z,97653.27
2019-03-09T18:06:43.793Z,97644.34
2019-03-09T18:09:18.708Z,97662.33
2019-03-09T18:11:49.402Z,97663.98
2019-03-09T18:14:21.266Z,97655.51
2019-03-09T18:16:53.041Z,97642.19
2019-03-09T18:19:23.533Z,97644.61
2019-03-09T18:21:55.476Z,97633.09
2019-03-09T18:24:25.771Z,97640.20
2019-03-09T18:26:56.166Z,97642.69
2019-03-09T18:29:26.508Z,97620.28
2019-03-09T18:31:56.958Z,97632.83
2019-03-09T18:34:27.442Z,97629.91
2019-03-09T18:36:58.339Z,97660.09
2019-03-09T18:39:29.220Z,97634.69
2019-03-09T18:41:59.732Z,97649.05
2019-03-09T18:44:35.269Z,97627.11
2019-03-09T18:47:05.971Z,97654.41
2019-03-09T18:49:43.764Z,97634.95
2019-03-09T18:52:15.617Z,97664.47
2019-03-09T18:54:46.361Z,97645.95
2019-03-09T18:57:18.914Z,97663.06
2019-03-09T18:59:49.255Z,97701.38
2019-03-09T19:02:21.635Z,97684.87
2019-03-09T19:04:52.247Z,97690.05
2019-03-09T19:07:22.473Z,97731.86
2019-03-09T19:09:53.744Z,97724.34
2019-03-09T19:12:26.623Z,97750.25
2019-03-09T19:14:57.085Z,97733.77
2019-03-09T19:17:28.376Z,97752.37
2019-03-09T19:19:58.902Z,97753.33
2019-03-09T19:22:34.299Z,97758.73
2019-03-09T19:25:05.533Z,97751.38
2019-03-09T19:27:38.185Z,97755.62
2019-03-09T19:30:10.092Z,97757.58
2019-03-09T19:32:40.388Z,97766.63
2019-03-09T19:35:10.821Z,97776.89
2019-03-09T19:37:41.164Z,97774.55
2019-03-09T19:40:13.631Z,97773.72
2019-03-09T19:42:44.224Z,97782.66
2019-03-09T19:45:16.357Z,97760.66
2019-03-09T19:47:47.722Z,97787.78
2019-03-09T19:50:19.873Z,97797.74
2019-03-09T19:52:52.274Z,97789.16
2019-03-09T19:55:23.263Z,97799.69
2019-03-09T19:57:54.071Z,97805.03
2019-03-09T20:00:24.511Z,97822.88
2019-03-09T20:02:55.253Z,97833.71
2019-03-09T20:05:25.950Z,97849.89
2019-03-09T20:08:00.221Z,97868.16
2019-03-09T20:10:30.853Z,97885.30
2019-03-09T20:13:03.376Z,97903.19
2019-03-09T20:15:33.771Z,97890.05
2019-03-09T20:18:08.563Z,97901.47
2019-03-09T20:20:39.794Z,97916.20
2019-03-09T20:23:13.284Z,97917.14
2019-03-09T20:25:44.835Z,97941.25
2019-03-09T20:28:15.290Z,97941.61
2019-03-09T20:30:47.915Z,97938.85
2019-03-09T20:33:18.439Z,97951.95
2019-03-09T20:35:49.255Z,97950.09
2019-03-09T20:38:19.628Z,97961.41
2019-03-09T20:40:50.025Z,97970.71
2019-03-09T20:43:20.345Z,97976.97
2019-03-09T20:45:52.819Z,97979.13
2019-03-09T20:48:23.148Z,97969.62
2019-03-09T20:50:53.518Z,97981.29
2019-03-09T20:53:24.178Z,97987.64
2019-03-09T20:55:54.570Z,98012.09
2019-03-09T20:58:24.876Z,98000.47
2019-03-09T21:00:55.167Z,98009.33
2019-03-09T21:03:25.543Z,98008.48
2019-03-09T21:05:57.892Z,98026.46
2019-03-09T21:08:28.236Z,98018.70
2019-03-09T21:11:03.902Z,98039.59
2019-03-09T21:13:31.170Z,98035.63
2019-03-09T21:16:01.452Z,98072.12
2019-03-09T21:18:31.769Z,98065.51
2019-03-09T21:21:02.056Z,98092.74
2019-03-09T21:23:32.468Z,98108.05
2019-03-09T21:26:02.883Z,98102.56
2019-03-09T21:28:33.429Z,98131.39
2019-03-09T21:31:05.833Z,98118.84
2019-03-09T21:33:36.211Z,98143.39
2019-03-09T21:36:06.693Z,98143.05
2019-03-09T21:38:38.216Z,98154.82
2019-03-09T21:41:08.576Z,98156.52
2019-03-09T21:43:39.091Z,98172.94
2019-03-09T21:46:09.532Z,98178.31
2019-03-09T21:48:41.996Z,98188.36
2019-03-09T21:51:12.362Z,98180.33
2019-03-09T21:53:42.763Z,98209.50
2019-03-09T21:56:13.041Z,98218.52
2019-03-09T21:58:43.426Z,98219.52
2019-03-09T22:01:13.704Z,98217.58
2019-03-09T22:03:44.025Z,98229.28
2019-03-09T22:06:14.310Z,98245.12
2019-03-09T22:08:44.560Z,98252.80
2019-03-09T22:11:14.889Z,98252.09
2019-03-09T22:13:45.646Z,98268.97
2019-03-09T22:16:15.973Z,98258.88
2019-03-09T22:18:46.276Z,98272.47
2019-03-09T22:21:16.479Z,98281.76
2019-03-09T22:23:46.789Z,98293.52
2019-03-09T22:26:17.171Z,98298.90
2019-03-09T22:28:47.442Z,98290.26
2019-03-09T22:31:17.650Z,98294.28
2019-03-09T22:33:48.099Z,98308.27
2019-03-09T22:36:18.368Z,98311.67
2019-03-09T22:38:50.016Z,98320.69
2019-03-09T22:41:20.244Z,98322.83
2019-03-09T22:43:50.551Z,98323.37
2019-03-09T22:46:20.853Z,98335.25
2019-03-09T22:48:51.092Z,98339.80
2019-03-09T22:51:21.380Z,98336.36
2019-03-09T22:53:51.799Z,98341.09
2019-03-09T22:56:22.146Z,98361.22
2019-03-09T22:58:52.322Z,98361.98
2019-03-09T23:01:22.663Z,98355.17
2019-03-09T23:03:53.011Z,98369.98
2019-03-09T23:06:23.229Z,98379.13
2019-03-09T23:08:53.577Z,98371.84
2019-03-09T23:11:23.937Z,98383.73
2019-03-09T23:13:56.215Z,98381.61
2019-03-09T23:16:26.522Z,98381.91
2019-03-09T23:18:56.935Z,98400.66
2019-03-09T23:21:27.210Z,98409.59
2019-03-09T23:23:57.429Z,98404.83
2019-03-09T23:26:27.740Z,98413.05
2019-03-09T23:28:58.590Z,98403.83
2019-03-09T23:31:29.170Z,98399.57
2019-03-09T23:33:59.695Z,98407.30
2019-03-09T23:36:29.953Z,98405.17
2019-03-09T23:39:00.227Z,98410.23
2019-03-09T23:41:30.542Z,98413.70
2019-03-09T23:44:01.083Z,98421.81
2019-03-09T23:46:31.290Z,98407.88
2019-03-09T23:49:01.491Z,98412.64
2019-03-09T23:51:31.716Z,98424.76
2019-03-09T23:54:03.095Z,98427.89
2019-03-09T23:56:33.344Z,98433.97
2019-03-09T23:59:03.649Z,98438.45
